Time;durP1;ratioP1;P1;durP2;ratioP2;P2;SDS_P1;SDS_P2;PMS_P1;PMS_P2;Temp;Humidity;BMP_temperature;BMP_pressure;BME280_temperature;BME280_humidity;BME280_pressure;Samples;Min_cycle;Max_cycle;Signal;HPM_P1;HPM_P2
2023/11/10 00:00:52;;;;;;;;;;;;;;;4.27;100.00;100361.13;5012123;28;865;-63
2023/11/10 00:03:18;;;;;;;;;;;;;;;4.35;100.00;100359.38;5012078;28;969;-63
2023/11/10 00:05:44;;;;;;;;;;;;;;;4.26;100.00;100362.25;5012293;28;1009;-63
2023/11/10 00:08:13;;;;;;;;;;;;;;;4.58;100.00;100356.91;5011838;28;1317;-63
2023/11/10 00:10:40;;;;;;;;;;;;;;;4.53;100.00;100362.66;5012027;28;807;-64
2023/11/10 00:13:07;;;;;;;;;;;;;;;4.42;100.00;100358.81;5015628;28;1973;-64
2023/11/10 00:15:34;;;;;;;;;;;;;;;4.45;100.00;100350.69;5016055;28;803;-63
2023/11/10 00:18:01;;;;;;;;;;;;;;;4.55;100.00;100363.09;5015690;28;1055;-64
2023/11/10 00:20:31;;;;;;;;;;;;;;;4.38;100.00;100363.38;5015762;28;834;-63
2023/11/10 00:22:58;;;;;;;;;;;;;;;4.27;100.00;100352.91;5014219;28;1199;-64
2023/11/10 00:25:25;;;;;;;;;;;;;;;4.33;100.00;100347.19;5015561;28;879;-63
2023/11/10 00:27:52;;;;;;;;;;;;;;;4.35;100.00;100339.44;5015481;28;885;-64
2023/11/10 00:30:19;;;;;;;;;;;;;;;4.38;100.00;100346.97;5015424;28;856;-63
2023/11/10 00:32:45;;;;;;;;;;;;;;;4.39;100.00;100337.59;5015223;28;1957;-64
2023/11/10 00:35:12;;;;;;;;;;;;;;;4.26;100.00;100343.09;5015425;28;854;-63
2023/11/10 00:37:39;;;;;;;;;;;;;;;4.17;100.00;100336.97;5015550;28;927;-64
2023/11/10 00:40:06;;;;;;;;;;;;;;;4.20;100.00;100344.47;5015269;28;885;-63
2023/11/10 00:42:33;;;;;;;;;;;;;;;4.15;100.00;100335.75;5015240;28;827;-63
2023/11/10 00:44:59;;;;;;;;;;;;;;;4.24;100.00;100331.72;5015396;28;862;-64
2023/11/10 00:47:25;;;;;;;;;;;;;;;4.37;100.00;100323.47;5015054;28;858;-64
2023/11/10 00:49:52;;;;;;;;;;;;;;;4.41;100.00;100321.63;5015180;28;803;-64
2023/11/10 00:52:20;;;;;;;;;;;;;;;4.26;100.00;100320.41;5014994;28;1890;-64
2023/11/10 00:54:47;;;;;;;;;;;;;;;4.22;100.00;100314.06;5014975;28;846;-64
2023/11/10 00:57:14;;;;;;;;;;;;;;;4.20;100.00;100319.84;5014905;28;872;-64
2023/11/10 00:59:41;;;;;;;;;;;;;;;4.53;100.00;100321.59;5014881;28;856;-64
2023/11/10 01:02:08;;;;;;;;;;;;;;;4.45;100.00;100317.06;5014927;28;818;-63
2023/11/10 01:04:34;;;;;;;;;;;;;;;4.27;100.00;100328.28;5014825;28;819;-64
2023/11/10 01:07:01;;;;;;;;;;;;;;;4.20;100.00;100330.00;5014990;28;1262;-63
2023/11/10 01:09:27;;;;;;;;;;;;;;;4.16;100.00;100327.19;5014876;28;874;-64
2023/11/10 01:11:54;;;;;;;;;;;;;;;4.13;100.00;100329.81;5014886;28;902;-63
2023/11/10 01:14:21;;;;;;;;;;;;;;;4.13;100.00;100319.66;5014892;28;1977;-63
2023/11/10 01:16:48;;;;;;;;;;;;;;;4.19;100.00;100321.00;5014807;28;1173;-63
2023/11/10 01:19:14;;;;;;;;;;;;;;;4.28;100.00;100315.41;5014679;28;932;-63
2023/11/10 01:21:41;;;;;;;;;;;;;;;4.22;100.00;100311.31;5014785;28;868;-63
2023/11/10 01:24:08;;;;;;;;;;;;;;;4.18;100.00;100311.22;5013653;28;1292;-63
2023/11/10 01:26:35;;;;;;;;;;;;;;;4.15;100.00;100302.91;5014427;28;821;-63
2023/11/10 01:29:02;;;;;;;;;;;;;;;4.08;100.00;100307.03;5014520;28;1304;-63
2023/11/10 01:31:29;;;;;;;;;;;;;;;3.95;100.00;100304.66;5014215;28;1171;-63
2023/11/10 01:33:55;;;;;;;;;;;;;;;3.80;100.00;100295.25;5014371;28;1945;-63
2023/11/10 01:36:22;;;;;;;;;;;;;;;3.70;100.00;100290.25;5014041;28;898;-63
2023/11/10 01:38:48;;;;;;;;;;;;;;;3.74;100.00;100288.44;5014205;28;882;-63
2023/11/10 01:41:15;;;;;;;;;;;;;;;3.82;100.00;100287.47;5014022;28;874;-64
2023/11/10 01:43:42;;;;;;;;;;;;;;;3.82;100.00;100291.03;5014062;28;874;-63
2023/11/10 01:46:29;;;;;;;;;;;;;;;3.79;100.00;100288.19;5014120;28;886;-63
2023/11/10 01:48:58;;;;;;;;;;;;;;;3.84;100.00;100293.41;5013815;28;1126;-63
2023/11/10 01:51:29;;;;;;;;;;;;;;;3.82;100.00;100293.75;5013821;28;910;-63
2023/11/10 01:53:55;;;;;;;;;;;;;;;3.91;100.00;100284.63;5013870;28;1886;-63
2023/11/10 01:56:23;;;;;;;;;;;;;;;3.92;100.00;100286.22;5014084;28;840;-63
2023/11/10 01:58:51;;;;;;;;;;;;;;;3.89;100.00;100285.75;5013722;28;953;-63
2023/11/10 02:01:18;;;;;;;;;;;;;;;3.93;100.00;100285.09;5013765;28;846;-63
2023/11/10 02:03:45;;;;;;;;;;;;;;;3.92;100.00;100287.00;5013719;28;817;-63
2023/11/10 02:06:11;;;;;;;;;;;;;;;3.90;100.00;100286.53;4996094;28;1297;-63
2023/11/10 02:08:38;;;;;;;;;;;;;;;3.79;100.00;100280.75;5013343;28;1251;-63
2023/11/10 02:11:05;;;;;;;;;;;;;;;3.84;100.00;100282.44;5013963;28;794;-63
2023/11/10 02:13:31;;;;;;;;;;;;;;;3.81;100.00;100283.94;5013415;28;1906;-63
2023/11/10 02:15:58;;;;;;;;;;;;;;;3.75;100.00;100285.31;5013509;28;1039;-63
2023/11/10 02:18:24;;;;;;;;;;;;;;;3.72;100.00;100286.03;5013646;28;822;-63
2023/11/10 02:20:51;;;;;;;;;;;;;;;3.68;100.00;100276.91;5013491;28;850;-63
2023/11/10 02:23:18;;;;;;;;;;;;;;;3.65;100.00;100277.63;5013501;28;1212;-63
2023/11/10 02:25:50;;;;;;;;;;;;;;;3.62;100.00;100276.34;5013492;28;926;-63
2023/11/10 02:28:17;;;;;;;;;;;;;;;3.56;100.00;100280.44;5013348;28;901;-63
2023/11/10 02:30:43;;;;;;;;;;;;;;;3.58;100.00;100278.16;5013126;28;965;-63
2023/11/10 02:33:10;;;;;;;;;;;;;;;3.60;100.00;100284.09;5013266;28;1891;-63
2023/11/10 02:35:36;;;;;;;;;;;;;;;3.65;100.00;100272.16;5013279;28;850;-63
2023/11/10 02:38:03;;;;;;;;;;;;;;;3.64;100.00;100276.00;5013010;28;945;-63
2023/11/10 02:40:29;;;;;;;;;;;;;;;3.62;100.00;100273.59;5013067;28;877;-63
2023/11/10 02:42:56;;;;;;;;;;;;;;;3.62;100.00;100273.59;5013053;28;938;-63
2023/11/10 02:45:22;;;;;;;;;;;;;;;3.65;100.00;100270.22;5012926;28;851;-63
2023/11/10 02:47:48;;;;;;;;;;;;;;;3.62;100.00;100265.41;5011782;28;1180;-63
2023/11/10 02:50:15;;;;;;;;;;;;;;;3.62;100.00;100265.41;5013115;28;863;-63
2023/11/10 02:52:41;;;;;;;;;;;;;;;3.67;100.00;100259.72;5013091;28;1943;-63
2023/11/10 02:55:08;;;;;;;;;;;;;;;3.62;100.00;100265.41;5012935;28;815;-63
2023/11/10 02:57:34;;;;;;;;;;;;;;;3.57;100.00;100270.34;5012968;28;806;-63
2023/11/10 03:00:01;;;;;;;;;;;;;;;3.48;100.00;100268.50;5012668;28;862;-63
2023/11/10 03:02:27;;;;;;;;;;;;;;;3.41;100.00;100271.00;5012904;28;881;-63
2023/11/10 03:04:54;;;;;;;;;;;;;;;3.34;100.00;100253.59;5012523;28;916;-63
2023/11/10 03:07:20;;;;;;;;;;;;;;;3.26;100.00;100263.50;5012154;28;1227;-63
2023/11/10 03:09:47;;;;;;;;;;;;;;;3.23;100.00;100256.00;5012583;28;810;-63
2023/11/10 03:12:14;;;;;;;;;;;;;;;3.12;100.00;100263.06;5012721;28;898;-63
2023/11/10 03:14:44;;;;;;;;;;;;;;;3.07;100.00;100261.34;5012348;28;1954;-63
2023/11/10 03:17:10;;;;;;;;;;;;;;;3.00;100.00;100261.91;5012455;28;1274;-63
2023/11/10 03:19:37;;;;;;;;;;;;;;;2.91;100.00;100263.16;5012224;28;806;-63
2023/11/10 03:22:03;;;;;;;;;;;;;;;2.84;100.00;100250.84;5012492;28;913;-63
2023/11/10 03:24:30;;;;;;;;;;;;;;;2.82;100.00;100260.53;5012246;28;815;-63
2023/11/10 03:26:56;;;;;;;;;;;;;;;2.84;100.00;100258.25;5012346;28;846;-63
2023/11/10 03:29:23;;;;;;;;;;;;;;;2.86;100.00;100254.03;5012178;28;827;-64
2023/11/10 03:31:50;;;;;;;;;;;;;;;2.83;100.00;100251.19;5011028;28;890;-63
2023/11/10 03:34:18;;;;;;;;;;;;;;;2.86;100.00;100256.00;5012098;28;1959;-63
2023/11/10 03:36:45;;;;;;;;;;;;;;;2.88;100.00;100252.91;5012154;28;831;-63
2023/11/10 03:39:12;;;;;;;;;;;;;;;2.80;100.00;100247.22;5012059;28;867;-63
2023/11/10 03:41:39;;;;;;;;;;;;;;;2.80;100.00;100260.06;5012420;28;838;-63
2023/11/10 03:44:05;;;;;;;;;;;;;;;2.81;100.00;100258.91;5012059;28;866;-63
2023/11/10 03:46:32;;;;;;;;;;;;;;;2.86;100.00;100264.19;5011495;28;933;-64
2023/11/10 03:48:59;;;;;;;;;;;;;;;2.92;100.00;100254.59;5011944;28;847;-63
2023/11/10 03:51:26;;;;;;;;;;;;;;;2.95;100.00;100251.22;5011968;28;823;-63
2023/11/10 03:53:52;;;;;;;;;;;;;;;3.02;100.00;100247.91;5012300;28;1926;-63
2023/11/10 03:56:19;;;;;;;;;;;;;;;3.02;100.00;100245.19;5011938;28;826;-63
2023/11/10 03:58:46;;;;;;;;;;;;;;;3.01;100.00;100240.88;5012000;28;842;-63
2023/11/10 04:01:13;;;;;;;;;;;;;;;2.98;100.00;100247.78;5011872;28;945;-63
2023/11/10 04:03:41;;;;;;;;;;;;;;;2.99;100.00;100248.59;5011944;28;842;-63
2023/11/10 04:06:07;;;;;;;;;;;;;;;3.00;100.00;100247.47;5011845;28;955;-63
2023/11/10 04:08:34;;;;;;;;;;;;;;;3.03;100.00;100252.22;5011659;28;1423;-63
2023/11/10 04:11:00;;;;;;;;;;;;;;;3.05;100.00;100258.97;5011860;28;867;-63
2023/11/10 04:13:27;;;;;;;;;;;;;;;3.11;100.00;100259.53;5010458;28;1979;-64
2023/11/10 04:15:56;;;;;;;;;;;;;;;3.11;100.00;100250.53;5011869;28;823;-63
2023/11/10 04:18:26;;;;;;;;;;;;;;;3.14;100.00;100250.66;5011712;28;890;-64
2023/11/10 04:20:54;;;;;;;;;;;;;;;3.15;100.00;100251.44;5011945;28;1288;-64
2023/11/10 04:23:20;;;;;;;;;;;;;;;3.12;100.00;100252.94;5011807;28;1162;-63
2023/11/10 04:25:47;;;;;;;;;;;;;;;3.05;100.00;100256.22;5011739;28;1237;-63
2023/11/10 04:28:14;;;;;;;;;;;;;;;3.04;100.00;100260.09;5011767;28;1253;-64
2023/11/10 04:30:40;;;;;;;;;;;;;;;3.12;100.00;100260.34;5010666;28;1519;-63
2023/11/10 04:33:07;;;;;;;;;;;;;;;3.12;100.00;100255.66;5011547;28;1886;-63
2023/11/10 04:35:35;;;;;;;;;;;;;;;3.11;100.00;100253.25;5011583;28;835;-63
2023/11/10 04:38:02;;;;;;;;;;;;;;;3.11;100.00;100256.78;5011724;28;1275;-63
2023/11/10 04:40:29;;;;;;;;;;;;;;;3.13;100.00;100265.44;5011830;28;819;-63
2023/11/10 04:42:56;;;;;;;;;;;;;;;3.15;100.00;100260.44;5011584;28;1166;-63
2023/11/10 04:45:24;;;;;;;;;;;;;;;3.18;100.00;100265.22;5012422;28;799;-63
2023/11/10 04:47:54;;;;;;;;;;;;;;;3.13;100.00;100259.97;5011702;28;930;-63
2023/11/10 04:50:21;;;;;;;;;;;;;;;3.10;100.00;100259.88;5011479;28;850;-63
2023/11/10 04:52:51;;;;;;;;;;;;;;;3.10;100.00;100259.88;5011423;28;1890;-63
2023/11/10 04:55:18;;;;;;;;;;;;;;;3.09;100.00;100263.72;5011599;28;886;-63
2023/11/10 04:57:45;;;;;;;;;;;;;;;3.03;100.00;100258.50;5011335;28;866;-63
2023/11/10 05:00:13;;;;;;;;;;;;;;;3.00;100.00;100256.44;5014945;28;827;-63
2023/11/10 05:03:01;;;;;;;;;;;;;;;2.96;100.00;100260.19;5014724;28;876;-63
2023/11/10 05:05:28;;;;;;;;;;;;;;;2.96;100.00;100262.94;5014879;28;1076;-63
2023/11/10 05:07:55;;;;;;;;;;;;;;;2.99;100.00;100256.81;5014549;28;1213;-64
2023/11/10 05:10:21;;;;;;;;;;;;;;;3.01;100.00;100266.25;5014713;28;843;-63
2023/11/10 05:12:48;;;;;;;;;;;;;;;3.04;100.00;100256.56;5013398;28;1918;-63
2023/11/10 05:15:15;;;;;;;;;;;;;;;3.14;100.00;100258.06;5014631;28;858;-63
2023/11/10 05:17:43;;;;;;;;;;;;;;;3.21;100.00;100253.59;5014569;28;859;-63
2023/11/10 05:20:13;;;;;;;;;;;;;;;3.28;100.00;100245.63;5014492;28;906;-63
2023/11/10 05:22:48;;;;;;;;;;;;;;;3.42;100.00;100249.97;5014573;28;835;-63
2023/11/10 05:25:15;;;;;;;;;;;;;;;3.54;100.00;100241.75;4996735;28;1360;-63
2023/11/10 05:27:42;;;;;;;;;;;;;;;3.70;100.00;100241.03;5014680;28;854;-63
2023/11/10 05:30:21;;;;;;;;;;;;;;;3.89;100.00;100239.28;5014314;28;862;-63
2023/11/10 05:32:50;;;;;;;;;;;;;;;3.96;100.00;100240.63;5014231;28;1913;-63
2023/11/10 05:35:18;;;;;;;;;;;;;;;4.04;100.00;100240.47;5014232;28;851;-63
2023/11/10 05:37:44;;;;;;;;;;;;;;;4.21;100.00;100239.38;5014168;28;914;-64
2023/11/10 05:40:11;;;;;;;;;;;;;;;4.40;100.00;100227.00;5014178;28;833;-64
2023/11/10 05:42:38;;;;;;;;;;;;;;;4.59;100.00;100229.84;5014028;28;831;-64
2023/11/10 05:45:05;;;;;;;;;;;;;;;4.84;100.00;100229.66;5014145;28;815;-64
2023/11/10 05:47:32;;;;;;;;;;;;;;;5.01;100.00;100221.09;5012637;28;1188;-63
2023/11/10 05:49:58;;;;;;;;;;;;;;;5.19;100.00;100223.47;5014149;28;873;-63
2023/11/10 05:52:26;;;;;;;;;;;;;;;5.44;100.00;100222.09;5014058;28;865;-64
2023/11/10 05:54:53;;;;;;;;;;;;;;;5.85;100.00;100224.56;5013973;28;873;-63
2023/11/10 05:57:19;;;;;;;;;;;;;;;6.01;100.00;100225.28;5013900;28;861;-63
2023/11/10 05:59:48;;;;;;;;;;;;;;;6.13;100.00;100232.59;5013795;28;918;-63
2023/11/10 06:02:17;;;;;;;;;;;;;;;6.12;100.00;100236.47;5013770;28;961;-64
2023/11/10 06:04:44;;;;;;;;;;;;;;;6.36;100.00;100251.06;5013712;28;843;-64
2023/11/10 06:07:13;;;;;;;;;;;;;;;6.61;100.00;100255.06;5013574;28;1125;-64
2023/11/10 06:09:38;;;;;;;;;;;;;;;6.97;100.00;100255.69;5013172;28;815;-65
2023/11/10 06:12:08;;;;;;;;;;;;;;;7.64;100.00;100257.13;5013566;28;901;-65
2023/11/10 06:14:35;;;;;;;;;;;;;;;8.00;100.00;100255.66;5013445;28;1910;-65
2023/11/10 06:17:01;;;;;;;;;;;;;;;8.32;100.00;100256.03;5013406;28;835;-65
2023/11/10 06:19:28;;;;;;;;;;;;;;;8.75;100.00;100259.28;5013323;28;917;-65
2023/11/10 06:21:54;;;;;;;;;;;;;;;9.12;100.00;100258.41;5013417;28;827;-65
2023/11/10 06:24:21;;;;;;;;;;;;;;;9.45;100.00;100261.41;5013265;28;851;-66
2023/11/10 06:26:47;;;;;;;;;;;;;;;9.78;100.00;100261.25;5013326;28;934;-66
2023/11/10 06:29:14;;;;;;;;;;;;;;;9.74;100.00;100260.44;5013209;28;850;-66
2023/11/10 06:32:02;;;;;;;;;;;;;;;9.14;100.00;100263.56;5013360;28;886;-66
2023/11/10 06:37:31;;;;;;;;;;;;;;;8.99;100.00;100260.69;5013081;28;686;-66
2023/11/10 06:39:58;;;;;;;;;;;;;;;9.35;100.00;100260.97;5012950;28;916;-66
2023/11/10 06:42:26;;;;;;;;;;;;;;;9.58;100.00;100260.75;5013153;28;815;-66
2023/11/10 06:44:53;;;;;;;;;;;;;;;9.85;100.00;100262.47;5012987;28;830;-66
2023/11/10 06:47:19;;;;;;;;;;;;;;;9.72;100.00;100260.03;5012912;28;862;-66
2023/11/10 06:49:46;;;;;;;;;;;;;;;9.63;100.00;100259.56;5012855;28;819;-65
2023/11/10 06:52:13;;;;;;;;;;;;;;;9.84;100.00;100249.84;5012774;28;895;-66
2023/11/10 06:54:39;;;;;;;;;;;;;;;10.02;100.00;100239.66;5012735;28;1910;-66
2023/11/10 06:57:09;;;;;;;;;;;;;;;10.53;100.00;100235.13;5012824;28;871;-66
2023/11/10 06:59:36;;;;;;;;;;;;;;;10.92;100.00;100239.91;5012743;28;858;-66
2023/11/10 07:02:03;;;;;;;;;;;;;;;11.00;100.00;100233.19;5012618;28;862;-66
2023/11/10 07:04:30;;;;;;;;;;;;;;;11.11;100.00;100236.75;5012686;28;839;-66
2023/11/10 07:06:57;;;;;;;;;;;;;;;10.91;100.00;100241.09;5012627;28;1187;-66
2023/11/10 07:09:25;;;;;;;;;;;;;;;10.59;100.00;100247.38;5012570;28;848;-66
2023/11/10 07:11:51;;;;;;;;;;;;;;;10.30;100.00;100233.47;5012442;28;887;-66
2023/11/10 07:14:18;;;;;;;;;;;;;;;10.22;100.00;100235.41;5012484;28;1918;-66
2023/11/10 07:16:45;;;;;;;;;;;;;;;10.21;100.00;100227.50;5012336;28;815;-66
2023/11/10 07:19:12;;;;;;;;;;;;;;;10.42;100.00;100224.03;5012403;28;831;-66
2023/11/10 07:21:39;;;;;;;;;;;;;;;10.69;100.00;100223.69;5011901;28;835;-66
2023/11/10 07:24:06;;;;;;;;;;;;;;;11.15;100.00;100226.47;5012410;28;823;-66
2023/11/10 07:26:33;;;;;;;;;;;;;;;11.62;100.00;100231.94;5012347;28;845;-66
2023/11/10 07:29:02;;;;;;;;;;;;;;;11.88;100.00;100230.72;5012373;28;811;-66
